Time;durP1;ratioP1;P1;durP2;ratioP2;P2;SDS_P1;SDS_P2;PMS_P1;PMS_P2;Temp;Humidity;BMP_temperature;BMP_pressure;BME280_temperature;BME280_humidity;BME280_pressure;Samples;Min_cycle;Max_cycle;Signal;HPM_P1;HPM_P2
2021/12/11 00:00:40;;;;;;;42.10;25.20;;;4.70;99.90;;;;;;638025;225;26497;-80
2021/12/11 00:03:08;;;;;;;45.57;24.80;;;4.70;99.90;;;;;;638277;222;26719;-80
2021/12/11 00:05:36;;;;;;;45.97;26.00;;;4.70;99.90;;;;;;638389;221;26485;-80
2021/12/11 00:08:03;;;;;;;45.80;25.30;;;4.80;99.90;;;;;;638097;225;26741;-80
2021/12/11 00:10:32;;;;;;;45.13;23.77;;;4.80;99.90;;;;;;638104;222;26566;-80
2021/12/11 00:12:59;;;;;;;43.37;24.80;;;5.00;99.90;;;;;;637191;225;26566;-80
2021/12/11 00:15:27;;;;;;;43.73;25.00;;;5.00;99.90;;;;;;637481;225;26822;-81
2021/12/11 00:17:56;;;;;;;41.20;23.87;;;4.80;99.90;;;;;;637570;225;26516;-80
2021/12/11 00:20:24;;;;;;;46.43;26.17;;;4.70;99.90;;;;;;637686;225;26831;-80
2021/12/11 00:22:50;;;;;;;46.30;24.83;;;4.70;99.90;;;;;;637573;225;26561;-80
2021/12/11 00:25:17;;;;;;;46.90;25.97;;;4.80;99.90;;;;;;637547;225;26780;-80
2021/12/11 00:27:45;;;;;;;46.20;26.47;;;4.90;99.90;;;;;;637471;226;26557;-81
2021/12/11 00:30:12;;;;;;;44.13;25.70;;;4.80;99.90;;;;;;637387;226;27304;-80
2021/12/11 00:32:39;;;;;;;49.87;24.47;;;4.80;99.90;;;;;;636861;226;26561;-80
2021/12/11 00:35:07;;;;;;;43.57;24.83;;;4.40;99.90;;;;;;637438;226;26553;-81
2021/12/11 00:37:35;;;;;;;43.13;24.67;;;4.40;99.90;;;;;;637209;225;26795;-80
2021/12/11 00:40:11;;;;;;;42.10;24.80;;;4.50;99.90;;;;;;637301;226;26585;-80
2021/12/11 00:42:39;;;;;;;43.23;24.00;;;4.50;99.90;;;;;;637231;225;26561;-80
2021/12/11 00:45:09;;;;;;;43.53;24.97;;;4.50;99.90;;;;;;637541;226;26782;-80
2021/12/11 00:47:36;;;;;;;43.97;25.07;;;4.50;99.90;;;;;;637405;226;26526;-80
2021/12/11 00:50:05;;;;;;;39.57;23.27;;;4.70;99.90;;;;;;637070;226;26822;-80
2021/12/11 00:52:34;;;;;;;40.97;24.13;;;4.70;99.90;;;;;;637370;225;26793;-80
2021/12/11 00:55:01;;;;;;;42.43;22.77;;;4.70;99.90;;;;;;637318;226;26555;-80
2021/12/11 00:57:29;;;;;;;43.10;24.07;;;4.20;99.90;;;;;;637202;226;26605;-80
2021/12/11 01:00:07;;;;;;;37.53;22.67;;;4.30;99.90;;;;;;638047;223;26637;-80
2021/12/11 01:02:34;;;;;;;44.10;23.43;;;4.30;99.90;;;;;;638913;225;26552;-80
2021/12/11 01:05:01;;;;;;;40.07;23.40;;;4.50;99.90;;;;;;638527;225;26750;-80
2021/12/11 01:07:32;;;;;;;39.10;22.73;;;4.60;99.90;;;;;;638328;224;26558;-80
2021/12/11 01:09:56;;;;;;;39.67;22.00;;;4.60;99.90;;;;;;637858;225;26833;-80
2021/12/11 01:12:27;;;;;;;37.50;22.97;;;4.60;99.90;;;;;;638278;225;26488;-81
2021/12/11 01:14:54;;;;;;;40.80;22.73;;;4.70;99.90;;;;;;638278;225;26488;-80
2021/12/11 01:17:25;;;;;;;39.47;23.53;;;4.90;99.90;;;;;;638239;225;26724;-80
2021/12/11 01:19:52;;;;;;;39.77;23.97;;;4.70;99.90;;;;;;637990;225;26570;-80
2021/12/11 01:22:31;;;;;;;41.17;24.63;;;4.70;99.90;;;;;;637805;225;26545;-80
2021/12/11 01:24:47;;;;;;;40.37;23.47;;;4.80;99.90;;;;;;637153;225;26743;-80
2021/12/11 01:27:16;;;;;;;40.60;23.67;;;4.90;99.90;;;;;;638152;225;26543;-80
2021/12/11 01:29:44;;;;;;;40.03;23.80;;;5.00;99.90;;;;;;637929;225;26833;-80
2021/12/11 01:32:11;;;;;;;42.53;23.53;;;5.00;99.90;;;;;;637714;225;26517;-80
2021/12/11 01:34:38;;;;;;;35.63;22.23;;;5.00;99.90;;;;;;637691;225;26525;-80
2021/12/11 01:37:05;;;;;;;41.40;23.27;;;4.90;99.90;;;;;;637494;225;26890;-80
2021/12/11 01:39:33;;;;;;;39.30;24.67;;;4.90;99.90;;;;;;637424;221;26601;-80
2021/12/11 01:42:00;;;;;;;41.47;24.87;;;4.80;99.90;;;;;;637376;226;26847;-80
2021/12/11 01:44:29;;;;;;;40.30;22.80;;;4.40;99.90;;;;;;637402;226;26556;-80
2021/12/11 01:46:59;;;;;;;38.63;23.47;;;4.70;99.90;;;;;;637233;226;26556;-80
2021/12/11 01:49:26;;;;;;;40.63;23.23;;;4.60;99.90;;;;;;637375;226;26614;-80
2021/12/11 01:51:55;;;;;;;38.97;24.90;;;4.80;99.90;;;;;;645609;221;26785;-80
2021/12/11 01:54:33;;;;;;;39.00;22.83;;;4.90;99.90;;;;;;648200;221;26565;-80
2021/12/11 01:57:01;;;;;;;36.93;23.80;;;4.80;99.90;;;;;;648274;222;26553;-80
2021/12/11 01:59:31;;;;;;;36.90;22.47;;;4.70;99.90;;;;;;648111;221;26586;-80
2021/12/11 02:02:03;;;;;;;41.03;23.43;;;4.70;99.90;;;;;;648384;221;26558;-80
2021/12/11 02:04:29;;;;;;;35.63;21.77;;;4.80;99.90;;;;;;648154;221;26557;-80
2021/12/11 02:06:57;;;;;;;39.10;23.27;;;4.80;99.90;;;;;;648330;222;26584;-80
2021/12/11 02:09:24;;;;;;;35.67;22.67;;;4.70;99.90;;;;;;648105;221;26854;-80
2021/12/11 02:11:51;;;;;;;40.90;23.97;;;4.70;99.90;;;;;;649224;219;26576;-80
2021/12/11 02:14:23;;;;;;;40.27;23.00;;;4.70;99.90;;;;;;649270;221;26797;-80
2021/12/11 02:16:45;;;;;;;43.50;25.20;;;4.90;99.90;;;;;;649074;221;26557;-80
2021/12/11 02:19:16;;;;;;;39.67;23.33;;;5.00;99.90;;;;;;649256;221;26807;-80
2021/12/11 02:21:50;;;;;;;41.30;25.13;;;4.90;99.90;;;;;;649130;221;26775;-81
2021/12/11 02:24:22;;;;;;;43.30;23.63;;;4.80;99.90;;;;;;648780;221;26580;-80
2021/12/11 02:26:45;;;;;;;37.80;24.20;;;4.80;99.90;;;;;;649097;221;26539;-81
2021/12/11 02:29:24;;;;;;;43.03;24.87;;;4.70;99.90;;;;;;649357;222;26551;-80
2021/12/11 02:31:54;;;;;;;38.77;23.13;;;4.70;99.90;;;;;;648713;221;26497;-80
2021/12/11 02:34:23;;;;;;;36.23;23.47;;;4.60;99.90;;;;;;648937;221;26738;-80
2021/12/11 02:36:54;;;;;;;38.60;23.67;;;4.70;99.90;;;;;;648814;221;26755;-80
2021/12/11 02:39:23;;;;;;;41.00;25.00;;;4.80;99.90;;;;;;648765;221;26551;-80
2021/12/11 02:41:52;;;;;;;41.83;25.00;;;4.90;99.90;;;;;;648908;221;26476;-81
2021/12/11 02:44:23;;;;;;;38.20;23.80;;;5.00;99.90;;;;;;648853;217;26495;-80
2021/12/11 02:46:50;;;;;;;37.37;24.13;;;4.90;99.90;;;;;;648635;221;26515;-80
2021/12/11 02:49:18;;;;;;;39.93;24.67;;;5.00;99.90;;;;;;648013;222;26581;-80
2021/12/11 02:51:49;;;;;;;44.33;26.53;;;4.90;99.90;;;;;;648081;221;26559;-80
2021/12/11 02:54:17;;;;;;;40.27;24.03;;;4.90;99.90;;;;;;648172;221;26567;-80
2021/12/11 02:56:45;;;;;;;40.20;24.13;;;4.90;99.90;;;;;;648214;221;26569;-81
2021/12/11 02:59:14;;;;;;;38.70;24.67;;;4.70;99.90;;;;;;648192;221;26857;-80
2021/12/11 03:01:50;;;;;;;42.43;25.33;;;4.70;99.90;;;;;;648161;221;26558;-79
2021/12/11 03:04:23;;;;;;;44.23;26.00;;;4.70;99.90;;;;;;648464;222;26561;-80
2021/12/11 03:06:48;;;;;;;39.97;24.70;;;4.60;99.90;;;;;;648049;221;26795;-80
2021/12/11 03:09:13;;;;;;;39.60;25.13;;;4.70;99.90;;;;;;648179;221;26817;-80
2021/12/11 03:11:40;;;;;;;43.00;26.57;;;4.70;99.90;;;;;;648287;221;26566;-80
2021/12/11 03:14:12;;;;;;;38.17;24.33;;;4.80;99.90;;;;;;648425;222;26792;-80
2021/12/11 03:16:35;;;;;;;42.63;25.70;;;4.80;99.90;;;;;;647979;221;26779;-80
2021/12/11 03:19:02;;;;;;;40.60;24.47;;;4.90;99.90;;;;;;648427;222;26849;-81
2021/12/11 03:21:29;;;;;;;38.73;24.73;;;4.70;99.90;;;;;;648461;222;26595;-80
2021/12/11 03:23:56;;;;;;;40.47;25.03;;;4.30;99.90;;;;;;649764;219;26520;-80
2021/12/11 03:26:24;;;;;;;45.13;25.57;;;4.30;99.90;;;;;;649726;221;26557;-81
2021/12/11 03:28:52;;;;;;;40.73;25.10;;;4.00;99.90;;;;;;649530;221;26581;-80
2021/12/11 03:31:20;;;;;;;44.50;26.23;;;3.90;99.90;;;;;;647866;221;26569;-82
2021/12/11 03:33:48;;;;;;;45.73;26.37;;;4.00;99.90;;;;;;638085;225;26504;-79
2021/12/11 03:36:15;;;;;;;40.60;24.83;;;4.00;99.90;;;;;;637926;225;26583;-79
2021/12/11 03:38:42;;;;;;;41.67;26.47;;;4.20;99.90;;;;;;637924;225;26532;-80
2021/12/11 03:41:10;;;;;;;41.67;26.23;;;4.30;99.90;;;;;;637879;225;26788;-87
2021/12/11 03:43:37;;;;;;;47.73;28.73;;;4.30;99.90;;;;;;637730;225;26557;-83
2021/12/11 03:46:04;;;;;;;48.97;29.10;;;3.90;99.90;;;;;;637670;225;26775;-87
2021/12/11 03:48:31;;;;;;;51.67;28.33;;;3.80;99.90;;;;;;637471;225;26656;-83
2021/12/11 03:50:58;;;;;;;51.00;30.00;;;3.80;99.90;;;;;;637499;225;26896;-83
2021/12/11 03:53:27;;;;;;;54.63;28.47;;;3.70;99.90;;;;;;637655;225;26533;-83
2021/12/11 03:55:55;;;;;;;56.00;31.63;;;3.70;99.90;;;;;;637629;225;26568;-83
2021/12/11 03:58:23;;;;;;;54.57;31.20;;;3.70;99.90;;;;;;637609;225;26521;-83
2021/12/11 04:00:56;;;;;;;53.87;30.50;;;3.60;99.90;;;;;;637548;226;26566;-83
2021/12/11 04:03:24;;;;;;;62.80;32.20;;;3.60;99.90;;;;;;637346;226;26564;-83
2021/12/11 04:05:51;;;;;;;58.50;33.57;;;3.60;99.90;;;;;;637490;226;26782;-83
2021/12/11 04:08:18;;;;;;;56.10;31.43;;;3.50;99.90;;;;;;637459;226;26594;-83
2021/12/11 04:10:45;;;;;;;57.83;31.03;;;3.70;99.90;;;;;;637025;226;26784;-83
2021/12/11 04:13:14;;;;;;;52.30;29.97;;;3.70;99.90;;;;;;637496;226;26573;-83
2021/12/11 04:15:39;;;;;;;54.67;30.47;;;3.50;99.90;;;;;;637385;226;26557;-83
2021/12/11 04:18:07;;;;;;;58.47;32.37;;;2.70;99.90;;;;;;637403;226;26563;-83
2021/12/11 04:20:37;;;;;;;57.97;31.57;;;2.80;99.90;;;;;;637447;226;26593;-83
2021/12/11 04:23:03;;;;;;;56.47;31.53;;;2.90;99.90;;;;;;637288;226;26560;-83
2021/12/11 04:25:31;;;;;;;49.63;26.20;;;2.90;99.90;;;;;;637368;226;27009;-79
2021/12/11 04:27:58;;;;;;;52.37;28.30;;;3.10;99.90;;;;;;637413;226;26538;-79
2021/12/11 04:30:25;;;;;;;46.27;25.60;;;3.50;99.90;;;;;;637406;226;26942;-80
2021/12/11 04:32:52;;;;;;;39.17;23.40;;;3.40;99.90;;;;;;637445;226;26542;-80
2021/12/11 04:35:21;;;;;;;41.07;23.63;;;3.50;99.90;;;;;;638285;223;26802;-79
2021/12/11 04:37:47;;;;;;;44.43;24.43;;;3.70;99.90;;;;;;639030;225;26504;-79
2021/12/11 04:40:17;;;;;;;41.83;22.17;;;3.70;99.90;;;;;;638857;225;26782;-80
2021/12/11 04:42:54;;;;;;;45.00;24.07;;;4.10;99.90;;;;;;638725;225;26549;-81
2021/12/11 04:45:33;;;;;;;47.00;24.17;;;3.60;99.90;;;;;;637613;225;26503;-79
2021/12/11 04:48:05;;;;;;;42.23;23.87;;;3.60;99.90;;;;;;637685;225;26770;-79
2021/12/11 04:50:33;;;;;;;41.47;23.77;;;2.90;99.90;;;;;;637336;225;26533;-80
2021/12/11 04:52:58;;;;;;;47.17;24.87;;;2.90;99.90;;;;;;637182;225;26532;-79
2021/12/11 04:58:38;;;;;;;50.37;23.90;;;3.20;99.90;;;;;;629709;225;26571;-79
2021/12/11 05:00:53;;;;;;;45.20;24.17;;;3.10;99.90;;;;;;635794;225;26592;-80
2021/12/11 05:03:32;;;;;;;45.40;24.57;;;3.40;99.90;;;;;;636451;225;26802;-80
2021/12/11 05:05:55;;;;;;;44.70;23.20;;;3.60;99.90;;;;;;635795;225;27294;-79
2021/12/11 05:11:02;;;;;;;43.83;23.23;;;3.90;99.90;;;;;;637731;225;26569;-79
2021/12/11 05:13:25;;;;;;;47.33;24.70;;;3.30;99.90;;;;;;637118;226;26771;-80
2021/12/11 05:15:52;;;;;;;42.33;23.50;;;3.40;99.90;;;;;;637534;226;26563;-79
2021/12/11 05:18:19;;;;;;;46.53;23.33;;;3.50;99.90;;;;;;637566;226;26786;-80
2021/12/11 05:20:46;;;;;;;48.57;24.43;;;3.80;99.90;;;;;;637476;226;26634;-79
2021/12/11 05:23:16;;;;;;;45.73;23.67;;;4.00;99.90;;;;;;637442;222;26760;-79
2021/12/11 05:25:41;;;;;;;53.37;24.40;;;4.20;99.90;;;;;;637288;226;26542;-79
2021/12/11 05:28:08;;;;;;;46.90;25.37;;;4.20;99.90;;;;;;637403;226;27081;-79
2021/12/11 05:30:36;;;;;;;44.70;23.43;;;4.00;99.90;;;;;;637401;226;26596;-80
2021/12/11 05:33:04;;;;;;;55.47;26.50;;;4.00;99.90;;;;;;637212;221;26556;-79
2021/12/11 05:35:31;;;;;;;48.33;24.43;;;3.90;99.90;;;;;;637296;226;26583;-80
2021/12/11 05:37:59;;;;;;;51.07;25.07;;;4.00;99.90;;;;;;637220;226;26556;-80
2021/12/11 05:40:26;;;;;;;48.93;25.33;;;4.00;99.90;;;;;;637371;226;26823;-80
2021/12/11 05:42:53;;;;;;;50.00;25.60;;;4.20;99.90;;;;;;637319;226;26603;-78
2021/12/11 05:45:20;;;;;;;50.57;25.70;;;4.30;99.90;;;;;;637396;226;26817;-79
2021/12/11 05:47:47;;;;;;;49.23;25.40;;;4.30;99.90;;;;;;639071;223;26547;-79
2021/12/11 05:50:15;;;;;;;51.53;25.70;;;4.50;99.90;;;;;;638641;225;26812;-80
2021/12/11 05:52:42;;;;;;;51.97;24.93;;;4.60;99.90;;;;;;638636;225;26549;-80
2021/12/11 05:55:13;;;;;;;44.37;25.03;;;4.70;99.90;;;;;;638632;225;26776;-80
2021/12/11 05:57:37;;;;;;;42.90;24.20;;;4.70;99.90;;;;;;637695;225;26504;-80
2021/12/11 06:00:09;;;;;;;48.50;23.87;;;4.80;99.90;;;;;;637976;225;26739;-80
2021/12/11 06:02:36;;;;;;;50.00;25.13;;;4.80;99.90;;;;;;638066;225;26745;-80
2021/12/11 06:05:04;;;;;;;46.63;24.13;;;4.80;99.90;;;;;;637783;225;26556;-80
2021/12/11 06:07:32;;;;;;;48.77;24.57;;;4.80;99.90;;;;;;637696;225;26584;-80
2021/12/11 06:09:59;;;;;;;43.97;22.73;;;4.80;99.90;;;;;;637686;225;26839;-80
2021/12/11 06:12:26;;;;;;;46.70;24.27;;;4.70;99.90;;;;;;637618;225;26573;-80
2021/12/11 06:14:53;;;;;;;47.53;23.97;;;4.80;99.90;;;;;;637744;225;26866;-80
2021/12/11 06:17:21;;;;;;;48.77;24.17;;;4.90;99.90;;;;;;637848;225;26530;-80
2021/12/11 06:19:52;;;;;;;45.87;23.43;;;5.00;99.90;;;;;;637653;225;26569;-80
2021/12/11 06:22:17;;;;;;;44.73;23.50;;;5.00;99.90;;;;;;637517;221;26800;-80
2021/12/11 06:24:44;;;;;;;43.87;24.63;;;5.00;99.90;;;;;;637495;226;26590;-80
2021/12/11 06:27:11;;;;;;;41.30;23.17;;;5.00;99.90;;;;;;637343;226;26822;-80
2021/12/11 06:29:39;;;;;;;44.87;25.10;;;5.10;99.90;;;;;;637352;221;26581;-80
2021/12/11 06:32:07;;;;;;;44.03;23.43;;;5.10;99.90;;;;;;637369;226;26762;-80
2021/12/11 06:34:36;;;;;;;42.00;23.57;;;5.10;99.90;;;;;;637384;226;26637;-80
2021/12/11 06:37:02;;;;;;;42.30;23.67;;;5.10;99.90;;;;;;637315;226;26566;-80
2021/12/11 06:39:30;;;;;;;42.83;25.53;;;5.20;99.90;;;;;;637423;226;26897;-80
2021/12/11 06:41:57;;;;;;;44.87;23.90;;;5.20;99.90;;;;;;637403;226;26573;-79
2021/12/11 06:44:28;;;;;;;42.67;23.33;;;5.10;99.90;;;;;;637384;226;26830;-80
2021/12/11 06:46:54;;;;;;;38.37;22.63;;;5.10;99.90;;;;;;637204;226;26591;-80
2021/12/11 06:49:21;;;;;;;39.00;21.80;;;5.10;99.90;;;;;;637314;226;26600;-79
2021/12/11 06:51:49;;;;;;;35.23;21.43;;;5.00;99.90;;;;;;637411;226;26573;-80
2021/12/11 06:54:16;;;;;;;41.67;22.30;;;5.00;99.90;;;;;;637455;226;26836;-79
2021/12/11 06:56:44;;;;;;;37.27;21.83;;;4.90;99.90;;;;;;637407;226;26574;-79
2021/12/11 06:59:11;;;;;;;40.03;22.20;;;4.90;99.90;;;;;;638944;223;26804;-79
2021/12/11 07:01:38;;;;;;;42.67;22.93;;;4.70;99.90;;;;;;638754;225;26522;-79
2021/12/11 07:04:07;;;;;;;45.57;24.33;;;4.60;99.90;;;;;;638422;225;26797;-80
2021/12/11 07:06:32;;;;;;;44.47;24.83;;;4.50;99.90;;;;;;638257;225;26552;-84
2021/12/11 07:09:00;;;;;;;54.20;25.53;;;4.50;99.90;;;;;;638157;225;26790;-79
2021/12/11 07:11:27;;;;;;;51.47;26.43;;;4.50;99.90;;;;;;638183;225;26718;-79
2021/12/11 07:13:54;;;;;;;52.70;28.07;;;4.80;99.90;;;;;;638044;225;26748;-80
2021/12/11 07:16:22;;;;;;;50.23;25.47;;;4.70;99.90;;;;;;637924;225;26583;-85
2021/12/11 07:18:50;;;;;;;55.97;26.70;;;4.70;99.90;;;;;;637740;225;26573;-80
2021/12/11 07:21:19;;;;;;;56.97;26.33;;;4.80;99.90;;;;;;646101;221;26584;-82
2021/12/11 07:23:48;;;;;;;61.43;27.43;;;4.80;99.90;;;;;;640699;222;26793;-79
2021/12/11 07:26:16;;;;;;;55.23;27.30;;;4.80;99.90;;;;;;643667;222;26626;-79
2021/12/11 07:28:40;;;;;;;55.63;26.90;;;4.80;99.90;;;;;;646668;221;26799;-79
2021/12/11 07:31:08;;;;;;;52.23;26.27;;;5.10;99.90;;;;;;638074;222;26548;-79
2021/12/11 07:33:37;;;;;;;59.10;26.80;;;5.10;99.90;;;;;;638643;221;26588;-79
2021/12/11 07:36:04;;;;;;;59.87;27.87;;;5.10;99.90;;;;;;637369;226;26564;-79
2021/12/11 07:38:32;;;;;;;59.80;26.97;;;5.00;99.90;;;;;;638241;222;26606;-79
2021/12/11 07:40:59;;;;;;;59.47;28.57;;;4.90;99.90;;;;;;648294;221;26542;-79
2021/12/11 07:43:27;;;;;;;59.67;28.53;;;4.90;99.90;;;;;;639638;221;26574;-79
2021/12/11 07:45:54;;;;;;;56.77;28.83;;;4.90;99.90;;;;;;642336;222;26817;-79
2021/12/11 07:48:21;;;;;;;55.33;28.13;;;4.90;99.90;;;;;;647482;221;26560;-79
2021/12/11 07:50:48;;;;;;;59.57;28.83;;;4.60;99.90;;;;;;644145;222;26791;-79
2021/12/11 07:53:15;;;;;;;56.93;26.00;;;3.80;99.90;;;;;;647699;221;26484;-83
2021/12/11 07:55:43;;;;;;;57.93;27.53;;;3.90;99.90;;;;;;647653;222;26765;-80
2021/12/11 07:58:10;;;;;;;56.90;27.90;;;4.00;99.90;;;;;;642591;222;26491;-80
2021/12/11 08:00:37;;;;;;;47.20;24.90;;;4.20;99.90;;;;;;647423;222;26900;-79
2021/12/11 08:03:05;;;;;;;43.07;24.10;;;4.20;99.90;;;;;;642261;220;26513;-79
2021/12/11 08:05:31;;;;;;;46.93;24.63;;;4.50;99.90;;;;;;647984;222;26839;-79
2021/12/11 08:08:03;;;;;;;44.60;23.43;;;4.00;99.90;;;;;;637893;222;26576;-79
2021/12/11 08:10:27;;;;;;;39.63;21.80;;;4.30;99.90;;;;;;644034;220;26788;-79
2021/12/11 08:12:55;;;;;;;42.33;23.33;;;4.40;99.90;;;;;;646097;220;26583;-79
2021/12/11 08:15:23;;;;;;;43.40;24.33;;;4.40;99.90;;;;;;646899;221;26589;-79
2021/12/11 08:17:54;;;;;;;43.30;24.93;;;4.40;99.90;;;;;;638373;222;26583;-79
2021/12/11 08:20:20;;;;;;;47.37;24.23;;;4.20;99.90;;;;;;642256;221;26801;-79
2021/12/11 08:22:47;;;;;;;52.07;25.80;;;4.10;99.90;;;;;;643167;222;26735;-79
2021/12/11 08:25:14;;;;;;;48.93;25.57;;;4.10;99.90;;;;;;649040;222;26580;-78
2021/12/11 08:27:41;;;;;;;51.40;25.23;;;3.90;99.90;;;;;;648940;222;26811;-80
2021/12/11 08:30:09;;;;;;;53.63;24.37;;;4.10;99.90;;;;;;648781;222;26551;-79
2021/12/11 08:32:36;;;;;;;49.20;24.37;;;4.30;99.90;;;;;;648760;222;27194;-79
2021/12/11 08:35:04;;;;;;;46.23;24.33;;;4.60;99.90;;;;;;645772;217;26499;-79
2021/12/11 08:37:31;;;;;;;47.27;23.73;;;4.60;99.90;;;;;;646474;222;26569;-79
2021/12/11 08:39:59;;;;;;;42.07;22.53;;;4.10;99.90;;;;;;647664;222;27054;-79
2021/12/11 08:42:26;;;;;;;45.73;23.37;;;3.90;99.90;;;;;;648607;222;26479;-80
2021/12/11 08:44:59;;;;;;;43.53;22.37;;;3.80;99.90;;;;;;648763;222;26507;-90
2021/12/11 08:47:21;;;;;;;40.63;22.57;;;4.50;99.90;;;;;;647974;221;26568;-85
2021/12/11 08:49:49;;;;;;;40.80;22.70;;;4.60;99.90;;;;;;648280;218;26590;-87
2021/12/11 08:52:19;;;;;;;38.23;20.57;;;4.30;99.90;;;;;;648300;221;26607;-90
2021/12/11 08:54:46;;;;;;;37.90;21.20;;;4.20;99.90;;;;;;648127;221;26581;-86
2021/12/11 08:57:13;;;;;;;40.57;21.43;;;3.70;99.90;;;;;;648207;222;26563;-86
2021/12/11 08:59:40;;;;;;;38.07;20.13;;;3.80;99.90;;;;;;648192;221;26583;-85
2021/12/11 09:02:08;;;;;;;37.87;21.23;;;4.10;99.90;;;;;;645069;221;26902;-80
2021/12/11 09:04:43;;;;;;;33.07;18.60;;;3.90;99.90;;;;;;645849;222;26542;-80
2021/12/11 09:07:07;;;;;;;36.23;20.87;;;3.70;99.90;;;;;;645637;222;26921;-80
2021/12/11 09:09:39;;;;;;;31.13;17.60;;;3.60;99.90;;;;;;647290;222;26527;-80
2021/12/11 09:12:24;;;;;;;33.43;18.77;;;3.50;99.90;;;;;;637732;225;26474;-82
2021/12/11 09:14:52;;;;;;;30.53;18.73;;;4.00;99.90;;;;;;633606;225;26503;-80
2021/12/11 09:17:23;;;;;;;29.57;17.43;;;3.90;99.90;;;;;;645789;222;26534;-81
2021/12/11 09:19:51;;;;;;;26.20;17.10;;;3.90;99.90;;;;;;640993;222;26567;-80
2021/12/11 09:22:21;;;;;;;29.20;18.17;;;4.10;99.90;;;;;;643293;220;26533;-85
2021/12/11 09:24:51;;;;;;;26.27;16.43;;;4.50;99.90;;;;;;643529;222;26512;-80
2021/12/11 09:27:19;;;;;;;26.03;16.37;;;3.70;99.90;;;;;;645007;222;26772;-79
2021/12/11 09:29:47;;;;;;;23.63;15.20;;;3.30;99.90;;;;;;648152;222;26510;-79
2021/12/11 09:32:16;;;;;;;23.87;14.00;;;3.00;99.90;;;;;;641087;222;26478;-79
2021/12/11 09:34:48;;;;;;;23.83;14.57;;;2.80;99.90;;;;;;639670;222;26489;-79
2021/12/11 09:37:15;;;;;;;24.27;15.27;;;2.70;99.90;;;;;;642192;222;26486;-80
2021/12/11 09:39:42;;;;;;;21.80;15.10;;;3.10;99.90;;;;;;642462;222;26558;-79
2021/12/11 09:42:09;;;;;;;23.47;15.83;;;3.60;99.90;;;;;;646590;221;26541;-82
2021/12/11 09:44:36;;;;;;;24.50;15.53;;;4.00;99.90;;;;;;651284;221;26474;-78
2021/12/11 09:47:03;;;;;;;25.07;15.97;;;3.90;99.90;;;;;;651159;221;26470;-79
2021/12/11 09:49:30;;;;;;;27.23;16.80;;;4.20;99.90;;;;;;650983;221;26517;-79
2021/12/11 09:52:03;;;;;;;27.40;17.70;;;4.00;99.90;;;;;;651122;221;26484;-80
2021/12/11 09:54:27;;;;;;;29.77;18.27;;;4.00;99.90;;;;;;650654;221;26794;-79
2021/12/11 09:56:54;;;;;;;27.70;17.60;;;4.00;99.90;;;;;;643387;221;26527;-79
2021/12/11 09:59:23;;;;;;;26.57;17.50;;;4.40;99.90;;;;;;648143;221;26553;-79
2021/12/11 10:01:50;;;;;;;24.10;16.33;;;4.40;99.90;;;;;;639165;221;26589;-80
2021/12/11 10:04:17;;;;;;;25.77;16.20;;;4.90;99.90;;;;;;643021;222;26581;-79
2021/12/11 10:09:29;;;;;;;25.70;16.87;;;4.40;99.90;;;;;;632377;222;26619;-80
2021/12/11 10:11:59;;;;;;;21.90;14.67;;;4.40;99.90;;;;;;638762;221;26598;-79
2021/12/11 10:14:30;;;;;;;24.47;14.70;;;4.10;99.90;;;;;;637032;226;26796;-80
2021/12/11 10:16:57;;;;;;;24.10;14.97;;;4.40;99.90;;;;;;637344;226;26587;-79
2021/12/11 10:19:29;;;;;;;23.67;14.50;;;3.90;99.90;;;;;;637466;226;26597;-81
2021/12/11 10:21:52;;;;;;;23.23;14.97;;;3.90;99.90;;;;;;637062;223;26569;-82
2021/12/11 10:24:19;;;;;;;21.10;13.30;;;4.30;99.90;;;;;;637345;226;26986;-81
2021/12/11 10:26:46;;;;;;;22.33;13.97;;;4.70;99.90;;;;;;637414;226;26578;-81
2021/12/11 10:29:13;;;;;;;20.57;13.37;;;5.20;99.90;;;;;;637495;226;27178;-82
2021/12/11 10:31:43;;;;;;;20.83;13.27;;;5.20;99.90;;;;;;646800;222;26519;-82
2021/12/11 10:34:11;;;;;;;20.77;13.67;;;4.80;99.90;;;;;;646192;220;26522;-81
2021/12/11 10:36:39;;;;;;;21.10;14.20;;;5.10;99.90;;;;;;647521;220;26832;-82
2021/12/11 10:39:07;;;;;;;18.50;13.30;;;5.50;99.90;;;;;;641366;222;26594;-81
2021/12/11 10:41:35;;;;;;;22.77;13.90;;;5.40;99.90;;;;;;644115;217;26588;-82
2021/12/11 10:44:06;;;;;;;23.27;14.47;;;5.40;99.90;;;;;;644019;222;26578;-82
2021/12/11 10:46:33;;;;;;;21.63;13.83;;;5.30;99.90;;;;;;643374;222;26529;-82
2021/12/11 10:49:01;;;;;;;23.00;14.53;;;6.00;99.90;;;;;;643248;222;26594;-82
2021/12/11 10:51:29;;;;;;;20.20;13.63;;;6.00;99.90;;;;;;645598;221;26540;-81
2021/12/11 10:53:57;;;;;;;21.17;13.73;;;6.00;99.90;;;;;;642709;222;26582;-81
2021/12/11 10:56:25;;;;;;;24.10;15.23;;;6.00;99.90;;;;;;643325;217;26811;-82
2021/12/11 10:58:55;;;;;;;21.33;14.57;;;5.70;99.90;;;;;;644879;222;26585;-82
2021/12/11 11:01:25;;;;;;;22.77;15.17;;;5.60;99.90;;;;;;644866;221;26573;-82
2021/12/11 11:03:50;;;;;;;21.80;14.50;;;5.80;99.90;;;;;;643724;222;26587;-82
2021/12/11 11:06:18;;;;;;;19.10;14.10;;;5.70;99.90;;;;;;644854;221;26488;-82
2021/12/11 11:08:46;;;;;;;22.00;14.30;;;5.70;99.90;;;;;;644490;220;26564;-82
2021/12/11 11:11:13;;;;;;;23.23;15.40;;;5.90;99.90;;;;;;643870;217;26557;-82
2021/12/11 11:13:41;;;;;;;22.97;14.53;;;5.80;99.90;;;;;;644257;221;26483;-81
2021/12/11 11:16:07;;;;;;;23.83;15.00;;;6.00;99.90;;;;;;643465;221;26748;-81
2021/12/11 11:18:35;;;;;;;23.87;14.77;;;5.40;99.90;;;;;;642963;222;26619;-81
2021/12/11 11:21:06;;;;;;;24.63;15.13;;;4.70;99.90;;;;;;643027;222;26556;-79
2021/12/11 11:23:33;;;;;;;21.00;15.00;;;4.70;99.90;;;;;;642043;222;26582;-81
2021/12/11 11:26:01;;;;;;;20.80;14.77;;;4.20;99.90;;;;;;647268;222;26535;-81
2021/12/11 11:28:30;;;;;;;22.20;15.17;;;4.20;99.90;;;;;;647010;222;26488;-80
2021/12/11 11:30:56;;;;;;;22.47;15.00;;;4.00;99.90;;;;;;647254;222;26515;-81
2021/12/11 11:33:24;;;;;;;22.90;14.90;;;4.70;99.90;;;;;;647127;222;26972;-80
2021/12/11 11:35:51;;;;;;;20.87;14.07;;;4.70;99.90;;;;;;647424;220;26804;-80
2021/12/11 11:38:19;;;;;;;21.50;14.50;;;4.40;99.90;;;;;;647250;221;26756;-79
2021/12/11 11:40:46;;;;;;;22.93;14.63;;;3.90;99.90;;;;;;647236;222;26541;-79
2021/12/11 11:43:14;;;;;;;23.20;14.53;;;4.20;99.90;;;;;;647264;220;26531;-79
2021/12/11 11:45:41;;;;;;;26.97;15.80;;;4.20;99.90;;;;;;649193;220;26576;-80
2021/12/11 11:48:09;;;;;;;23.20;15.20;;;4.20;99.90;;;;;;648713;222;26503;-79
2021/12/11 11:50:37;;;;;;;24.70;14.90;;;4.50;99.90;;;;;;648446;222;26569;-79
2021/12/11 11:53:05;;;;;;;21.80;15.07;;;4.30;99.90;;;;;;648115;222;26523;-79
2021/12/11 11:55:33;;;;;;;22.60;14.83;;;4.30;99.90;;;;;;647914;222;26780;-79
2021/12/11 11:58:01;;;;;;;21.20;13.30;;;4.70;99.90;;;;;;647667;222;26785;-79
2021/12/11 12:00:30;;;;;;;19.40;13.60;;;5.00;99.90;;;;;;647897;222;26597;-79
2021/12/11 12:02:57;;;;;;;20.23;13.73;;;5.00;99.90;;;;;;647520;222;26563;-79
2021/12/11 12:05:25;;;;;;;20.03;13.53;;;5.30;99.90;;;;;;647571;220;26804;-80
2021/12/11 12:07:52;;;;;;;20.00;13.40;;;5.40;99.90;;;;;;647529;222;26562;-79
2021/12/11 12:10:19;;;;;;;22.33;13.70;;;5.60;99.90;;;;;;647583;222;27143;-80
2021/12/11 12:12:46;;;;;;;20.53;14.03;;;5.40;99.90;;;;;;647434;222;26615;-80
2021/12/11 12:15:13;;;;;;;18.07;13.33;;;5.00;99.90;;;;;;647606;222;26584;-80
2021/12/11 12:17:41;;;;;;;18.90;12.70;;;4.10;99.90;;;;;;647400;222;26556;-80
2021/12/11 12:20:09;;;;;;;18.33;13.43;;;4.50;99.90;;;;;;647456;220;26608;-80
2021/12/11 12:22:37;;;;;;;21.43;13.53;;;4.40;99.90;;;;;;647186;220;26806;-80
2021/12/11 12:25:04;;;;;;;20.10;14.00;;;4.00;99.90;;;;;;647254;222;26515;-80
2021/12/11 12:27:32;;;;;;;20.70;13.87;;;3.80;99.90;;;;;;647283;222;26516;-79
2021/12/11 12:29:59;;;;;;;19.53;13.63;;;4.10;99.90;;;;;;647182;222;26841;-80
2021/12/11 12:32:27;;;;;;;22.60;14.57;;;4.40;99.90;;;;;;647246;222;26539;-80
2021/12/11 12:34:54;;;;;;;20.37;14.17;;;4.30;99.90;;;;;;647158;222;26569;-81
2021/12/11 12:37:21;;;;;;;25.10;15.33;;;4.10;99.90;;;;;;647264;218;26762;-79
2021/12/11 12:39:49;;;;;;;23.00;15.07;;;3.70;99.90;;;;;;647213;222;26516;-79
2021/12/11 12:42:33;;;;;;;21.80;14.40;;;3.70;99.90;;;;;;647248;222;26484;-80
2021/12/11 12:44:58;;;;;;;22.00;14.53;;;3.70;99.90;;;;;;646766;222;26516;-79
2021/12/11 12:47:27;;;;;;;21.07;14.97;;;4.40;99.90;;;;;;646960;222;26527;-80